sensor_id;sensor_type;location;lat;lon;timestamp;P1;durP1;ratioP1;P2;durP2;ratioP2
69837;SDS011;57135;51.992;4.476;2023-03-01T00:02:00;27.45;;;27.00;;
69837;SDS011;57135;51.992;4.476;2023-03-01T00:04:26;27.02;;;26.74;;
69837;SDS011;57135;51.992;4.476;2023-03-01T00:06:52;27.29;;;27.11;;
69837;SDS011;57135;51.992;4.476;2023-03-01T00:09:18;28.28;;;28.01;;
69837;SDS011;57135;51.992;4.476;2023-03-01T00:11:44;27.64;;;27.11;;
69837;SDS011;57135;51.992;4.476;2023-03-01T00:14:09;26.85;;;26.81;;
69837;SDS011;57135;51.992;4.476;2023-03-01T00:16:36;27.02;;;26.69;;
69837;SDS011;57135;51.992;4.476;2023-03-01T00:19:07;27.33;;;27.04;;
69837;SDS011;57135;51.992;4.476;2023-03-01T00:21:33;27.39;;;27.19;;
69837;SDS011;57135;51.992;4.476;2023-03-01T00:24:11;28.37;;;28.03;;
69837;SDS011;57135;51.992;4.476;2023-03-01T00:26:37;27.95;;;27.69;;
69837;SDS011;57135;51.992;4.476;2023-03-01T00:29:03;28.32;;;27.96;;
69837;SDS011;57135;51.992;4.476;2023-03-01T00:31:29;27.58;;;27.14;;
69837;SDS011;57135;51.992;4.476;2023-03-01T00:33:57;28.45;;;27.96;;
69837;SDS011;57135;51.992;4.476;2023-03-01T00:36:25;27.57;;;27.27;;
69837;SDS011;57135;51.992;4.476;2023-03-01T00:38:55;27.43;;;27.24;;
69837;SDS011;57135;51.992;4.476;2023-03-01T00:41:21;26.72;;;26.44;;
69837;SDS011;57135;51.992;4.476;2023-03-01T00:43:48;27.42;;;27.13;;
69837;SDS011;57135;51.992;4.476;2023-03-01T00:46:16;26.76;;;26.66;;
69837;SDS011;57135;51.992;4.476;2023-03-01T00:48:43;26.61;;;26.33;;
69837;SDS011;57135;51.992;4.476;2023-03-01T00:51:14;27.33;;;26.86;;
69837;SDS011;57135;51.992;4.476;2023-03-01T00:53:40;26.89;;;26.80;;
69837;SDS011;57135;51.992;4.476;2023-03-01T00:56:06;26.34;;;26.09;;
69837;SDS011;57135;51.992;4.476;2023-03-01T00:58:33;27.25;;;27.03;;
69837;SDS011;57135;51.992;4.476;2023-03-01T01:01:00;27.45;;;26.86;;
69837;SDS011;57135;51.992;4.476;2023-03-01T01:03:25;26.98;;;26.81;;
69837;SDS011;57135;51.992;4.476;2023-03-01T01:05:51;27.10;;;26.73;;
69837;SDS011;57135;51.992;4.476;2023-03-01T01:08:18;27.50;;;27.00;;
69837;SDS011;57135;51.992;4.476;2023-03-01T01:10:44;27.03;;;26.64;;
69837;SDS011;57135;51.992;4.476;2023-03-01T01:13:10;26.79;;;26.57;;
69837;SDS011;57135;51.992;4.476;2023-03-01T01:15:36;27.53;;;27.10;;
69837;SDS011;57135;51.992;4.476;2023-03-01T01:18:01;27.88;;;27.45;;
69837;SDS011;57135;51.992;4.476;2023-03-01T01:20:27;26.95;;;26.73;;
69837;SDS011;57135;51.992;4.476;2023-03-01T01:22:53;27.01;;;26.77;;
69837;SDS011;57135;51.992;4.476;2023-03-01T01:25:18;27.18;;;26.80;;
69837;SDS011;57135;51.992;4.476;2023-03-01T01:27:44;27.82;;;27.72;;
69837;SDS011;57135;51.992;4.476;2023-03-01T01:30:09;28.26;;;27.95;;
69837;SDS011;57135;51.992;4.476;2023-03-01T01:32:35;28.44;;;28.08;;
69837;SDS011;57135;51.992;4.476;2023-03-01T01:35:01;28.65;;;28.15;;
69837;SDS011;57135;51.992;4.476;2023-03-01T01:37:26;30.66;;;30.08;;
69837;SDS011;57135;51.992;4.476;2023-03-01T01:39:57;30.07;;;29.47;;
69837;SDS011;57135;51.992;4.476;2023-03-01T01:42:24;30.01;;;29.52;;
69837;SDS011;57135;51.992;4.476;2023-03-01T01:45:15;31.26;;;30.52;;
69837;SDS011;57135;51.992;4.476;2023-03-01T01:48:05;30.31;;;29.66;;
69837;SDS011;57135;51.992;4.476;2023-03-01T01:50:36;31.26;;;30.56;;
69837;SDS011;57135;51.992;4.476;2023-03-01T01:53:06;31.99;;;31.56;;
69837;SDS011;57135;51.992;4.476;2023-03-01T01:55:36;31.92;;;31.34;;
69837;SDS011;57135;51.992;4.476;2023-03-01T01:58:06;32.63;;;31.90;;
69837;SDS011;57135;51.992;4.476;2023-03-01T02:00:34;31.94;;;31.44;;
69837;SDS011;57135;51.992;4.476;2023-03-01T02:03:01;33.17;;;32.44;;
69837;SDS011;57135;51.992;4.476;2023-03-01T02:08:02;32.56;;;31.78;;
69837;SDS011;57135;51.992;4.476;2023-03-01T02:10:28;31.51;;;31.03;;
69837;SDS011;57135;51.992;4.476;2023-03-01T02:12:58;32.09;;;31.61;;
69837;SDS011;57135;51.992;4.476;2023-03-01T02:15:25;33.64;;;32.85;;
69837;SDS011;57135;51.992;4.476;2023-03-01T02:17:52;33.33;;;32.35;;
69837;SDS011;57135;51.992;4.476;2023-03-01T02:22:44;34.05;;;33.07;;
69837;SDS011;57135;51.992;4.476;2023-03-01T02:27:40;34.62;;;33.43;;
69837;SDS011;57135;51.992;4.476;2023-03-01T02:30:11;34.02;;;33.03;;
69837;SDS011;57135;51.992;4.476;2023-03-01T02:32:38;34.13;;;33.22;;
69837;SDS011;57135;51.992;4.476;2023-03-01T02:35:08;33.68;;;32.83;;
69837;SDS011;57135;51.992;4.476;2023-03-01T02:37:35;34.58;;;33.60;;
69837;SDS011;57135;51.992;4.476;2023-03-01T02:40:03;36.00;;;34.62;;
69837;SDS011;57135;51.992;4.476;2023-03-01T02:42:32;36.09;;;34.90;;
69837;SDS011;57135;51.992;4.476;2023-03-01T02:45:02;34.79;;;33.87;;
69837;SDS011;57135;51.992;4.476;2023-03-01T02:47:28;34.61;;;33.70;;
69837;SDS011;57135;51.992;4.476;2023-03-01T02:49:53;34.51;;;33.65;;
69837;SDS011;57135;51.992;4.476;2023-03-01T02:55:11;34.83;;;34.06;;
69837;SDS011;57135;51.992;4.476;2023-03-01T02:57:44;36.09;;;35.29;;
69837;SDS011;57135;51.992;4.476;2023-03-01T03:00:12;36.42;;;35.35;;
69837;SDS011;57135;51.992;4.476;2023-03-01T03:02:48;37.09;;;36.00;;
69837;SDS011;57135;51.992;4.476;2023-03-01T03:05:17;36.90;;;35.83;;
69837;SDS011;57135;51.992;4.476;2023-03-01T03:07:45;37.05;;;35.94;;
69837;SDS011;57135;51.992;4.476;2023-03-01T03:10:19;36.83;;;35.91;;
69837;SDS011;57135;51.992;4.476;2023-03-01T03:12:54;36.44;;;35.43;;
69837;SDS011;57135;51.992;4.476;2023-03-01T03:15:22;38.28;;;36.80;;
69837;SDS011;57135;51.992;4.476;2023-03-01T03:17:48;36.82;;;35.70;;
69837;SDS011;57135;51.992;4.476;2023-03-01T03:20:15;37.10;;;35.90;;
69837;SDS011;57135;51.992;4.476;2023-03-01T03:22:46;36.26;;;35.32;;
69837;SDS011;57135;51.992;4.476;2023-03-01T03:25:13;37.81;;;36.67;;
69837;SDS011;57135;51.992;4.476;2023-03-01T03:27:40;36.62;;;35.63;;
69837;SDS011;57135;51.992;4.476;2023-03-01T03:30:09;36.36;;;35.45;;
69837;SDS011;57135;51.992;4.476;2023-03-01T03:32:39;37.66;;;36.49;;
69837;SDS011;57135;51.992;4.476;2023-03-01T03:35:05;36.22;;;35.18;;
69837;SDS011;57135;51.992;4.476;2023-03-01T03:37:40;36.45;;;35.30;;
69837;SDS011;57135;51.992;4.476;2023-03-01T03:40:26;35.62;;;34.50;;
69837;SDS011;57135;51.992;4.476;2023-03-01T03:42:51;35.23;;;34.32;;
69837;SDS011;57135;51.992;4.476;2023-03-01T03:45:17;35.82;;;34.73;;
69837;SDS011;57135;51.992;4.476;2023-03-01T03:47:43;35.20;;;34.42;;
69837;SDS011;57135;51.992;4.476;2023-03-01T03:50:09;36.72;;;35.28;;
69837;SDS011;57135;51.992;4.476;2023-03-01T03:52:38;37.11;;;35.63;;
69837;SDS011;57135;51.992;4.476;2023-03-01T03:55:04;36.57;;;35.37;;
69837;SDS011;57135;51.992;4.476;2023-03-01T03:57:45;37.42;;;36.36;;
69837;SDS011;57135;51.992;4.476;2023-03-01T04:00:18;38.34;;;36.87;;
69837;SDS011;57135;51.992;4.476;2023-03-01T04:02:45;35.93;;;34.65;;
69837;SDS011;57135;51.992;4.476;2023-03-01T04:05:13;34.81;;;33.79;;
69837;SDS011;57135;51.992;4.476;2023-03-01T04:07:41;36.63;;;35.50;;
69837;SDS011;57135;51.992;4.476;2023-03-01T04:10:17;36.59;;;35.57;;
69837;SDS011;57135;51.992;4.476;2023-03-01T04:12:43;36.47;;;35.20;;
69837;SDS011;57135;51.992;4.476;2023-03-01T04:15:09;36.81;;;35.67;;
69837;SDS011;57135;51.992;4.476;2023-03-01T04:17:43;39.20;;;37.67;;
69837;SDS011;57135;51.992;4.476;2023-03-01T04:20:11;37.89;;;36.42;;
69837;SDS011;57135;51.992;4.476;2023-03-01T04:22:39;35.89;;;34.78;;
69837;SDS011;57135;51.992;4.476;2023-03-01T04:25:05;36.53;;;35.39;;
69837;SDS011;57135;51.992;4.476;2023-03-01T04:27:33;39.43;;;37.89;;
69837;SDS011;57135;51.992;4.476;2023-03-01T04:29:59;39.56;;;37.97;;
69837;SDS011;57135;51.992;4.476;2023-03-01T04:32:24;42.76;;;41.04;;
69837;SDS011;57135;51.992;4.476;2023-03-01T04:34:49;43.55;;;41.86;;
69837;SDS011;57135;51.992;4.476;2023-03-01T04:37:15;44.18;;;42.36;;
69837;SDS011;57135;51.992;4.476;2023-03-01T04:39:41;47.10;;;44.67;;
69837;SDS011;57135;51.992;4.476;2023-03-01T04:42:14;46.87;;;44.40;;
69837;SDS011;57135;51.992;4.476;2023-03-01T04:44:40;49.40;;;46.14;;
69837;SDS011;57135;51.992;4.476;2023-03-01T04:47:06;46.90;;;43.86;;
69837;SDS011;57135;51.992;4.476;2023-03-01T04:49:32;42.96;;;41.78;;
69837;SDS011;57135;51.992;4.476;2023-03-01T04:51:58;44.97;;;43.29;;
69837;SDS011;57135;51.992;4.476;2023-03-01T04:54:27;46.65;;;45.04;;
69837;SDS011;57135;51.992;4.476;2023-03-01T04:56:53;46.80;;;44.68;;
69837;SDS011;57135;51.992;4.476;2023-03-01T04:59:19;46.64;;;44.55;;
69837;SDS011;57135;51.992;4.476;2023-03-01T05:01:50;44.70;;;42.82;;
69837;SDS011;57135;51.992;4.476;2023-03-01T05:04:17;42.73;;;41.47;;
69837;SDS011;57135;51.992;4.476;2023-03-01T05:06:42;44.96;;;43.21;;
69837;SDS011;57135;51.992;4.476;2023-03-01T05:09:08;42.90;;;41.45;;
69837;SDS011;57135;51.992;4.476;2023-03-01T05:11:33;43.16;;;41.55;;
69837;SDS011;57135;51.992;4.476;2023-03-01T05:14:04;42.76;;;41.42;;
69837;SDS011;57135;51.992;4.476;2023-03-01T05:16:32;44.53;;;42.97;;
69837;SDS011;57135;51.992;4.476;2023-03-01T05:18:58;45.42;;;43.84;;
69837;SDS011;57135;51.992;4.476;2023-03-01T05:21:24;45.05;;;43.03;;
69837;SDS011;57135;51.992;4.476;2023-03-01T05:23:51;42.98;;;41.50;;
69837;SDS011;57135;51.992;4.476;2023-03-01T05:26:17;41.04;;;39.77;;
69837;SDS011;57135;51.992;4.476;2023-03-01T05:28:44;40.78;;;39.40;;
69837;SDS011;57135;51.992;4.476;2023-03-01T05:31:10;39.22;;;37.90;;
69837;SDS011;57135;51.992;4.476;2023-03-01T05:33:36;38.94;;;37.70;;
69837;SDS011;57135;51.992;4.476;2023-03-01T05:36:03;38.64;;;37.20;;
69837;SDS011;57135;51.992;4.476;2023-03-01T05:38:29;38.88;;;37.72;;
69837;SDS011;57135;51.992;4.476;2023-03-01T05:40:54;38.10;;;36.95;;
69837;SDS011;57135;51.992;4.476;2023-03-01T05:43:20;37.76;;;36.87;;
69837;SDS011;57135;51.992;4.476;2023-03-01T05:45:45;38.01;;;36.82;;
69837;SDS011;57135;51.992;4.476;2023-03-01T05:48:11;38.37;;;37.24;;
69837;SDS011;57135;51.992;4.476;2023-03-01T05:50:44;38.50;;;37.43;;
69837;SDS011;57135;51.992;4.476;2023-03-01T05:53:14;38.28;;;37.23;;
69837;SDS011;57135;51.992;4.476;2023-03-01T05:55:41;37.42;;;36.43;;
69837;SDS011;57135;51.992;4.476;2023-03-01T05:58:09;37.31;;;36.29;;
69837;SDS011;57135;51.992;4.476;2023-03-01T06:00:39;38.01;;;36.80;;
69837;SDS011;57135;51.992;4.476;2023-03-01T06:03:05;38.28;;;37.15;;
69837;SDS011;57135;51.992;4.476;2023-03-01T06:05:30;38.62;;;37.38;;
69837;SDS011;57135;51.992;4.476;2023-03-01T06:07:59;38.13;;;37.12;;
69837;SDS011;57135;51.992;4.476;2023-03-01T06:10:25;38.96;;;37.77;;
69837;SDS011;57135;51.992;4.476;2023-03-01T06:12:51;38.62;;;37.51;;
69837;SDS011;57135;51.992;4.476;2023-03-01T06:15:17;37.99;;;36.93;;
69837;SDS011;57135;51.992;4.476;2023-03-01T06:17:43;38.08;;;36.83;;
69837;SDS011;57135;51.992;4.476;2023-03-01T06:20:11;36.44;;;35.26;;
69837;SDS011;57135;51.992;4.476;2023-03-01T06:22:41;35.28;;;34.31;;
69837;SDS011;57135;51.992;4.476;2023-03-01T06:25:08;35.33;;;34.12;;
69837;SDS011;57135;51.992;4.476;2023-03-01T06:27:39;35.65;;;34.36;;
69837;SDS011;57135;51.992;4.476;2023-03-01T06:30:05;35.42;;;34.24;;
69837;SDS011;57135;51.992;4.476;2023-03-01T06:32:33;34.83;;;33.82;;
69837;SDS011;57135;51.992;4.476;2023-03-01T06:34:58;34.66;;;33.79;;
69837;SDS011;57135;51.992;4.476;2023-03-01T06:37:27;34.68;;;33.87;;
69837;SDS011;57135;51.992;4.476;2023-03-01T06:39:52;34.31;;;33.26;;
69837;SDS011;57135;51.992;4.476;2023-03-01T06:42:18;34.09;;;33.13;;
69837;SDS011;57135;51.992;4.476;2023-03-01T06:44:44;34.16;;;33.34;;
69837;SDS011;57135;51.992;4.476;2023-03-01T06:47:09;33.25;;;32.34;;
69837;SDS011;57135;51.992;4.476;2023-03-01T06:49:35;33.84;;;32.97;;
69837;SDS011;57135;51.992;4.476;2023-03-01T06:52:00;33.21;;;32.63;;
69837;SDS011;57135;51.992;4.476;2023-03-01T06:54:25;34.11;;;33.44;;
69837;SDS011;57135;51.992;4.476;2023-03-01T06:56:51;34.05;;;33.19;;
69837;SDS011;57135;51.992;4.476;2023-03-01T06:59:18;35.92;;;35.07;;
69837;SDS011;57135;51.992;4.476;2023-03-01T07:01:44;36.64;;;35.80;;
69837;SDS011;57135;51.992;4.476;2023-03-01T07:04:10;35.97;;;35.30;;
69837;SDS011;57135;51.992;4.476;2023-03-01T07:06:36;36.75;;;35.57;;
69837;SDS011;57135;51.992;4.476;2023-03-01T07:09:01;36.10;;;35.20;;
69837;SDS011;57135;51.992;4.476;2023-03-01T07:11:27;36.71;;;35.85;;
69837;SDS011;57135;51.992;4.476;2023-03-01T07:13:52;36.26;;;35.35;;
69837;SDS011;57135;51.992;4.476;2023-03-01T07:16:18;37.02;;;36.00;;
69837;SDS011;57135;51.992;4.476;2023-03-01T07:18:45;35.08;;;33.90;;
69837;SDS011;57135;51.992;4.476;2023-03-01T07:21:11;35.67;;;34.77;;
69837;SDS011;57135;51.992;4.476;2023-03-01T07:23:38;36.50;;;35.55;;
69837;SDS011;57135;51.992;4.476;2023-03-01T07:26:04;36.34;;;35.36;;
69837;SDS011;57135;51.992;4.476;2023-03-01T07:28:30;35.16;;;34.40;;
69837;SDS011;57135;51.992;4.476;2023-03-01T07:31:00;35.77;;;34.84;;
69837;SDS011;57135;51.992;4.476;2023-03-01T07:33:29;34.99;;;34.07;;
69837;SDS011;57135;51.992;4.476;2023-03-01T07:35:58;34.67;;;34.02;;
69837;SDS011;57135;51.992;4.476;2023-03-01T07:38:25;35.74;;;34.92;;
69837;SDS011;57135;51.992;4.476;2023-03-01T07:40:53;36.01;;;34.94;;
69837;SDS011;57135;51.992;4.476;2023-03-01T07:43:19;36.35;;;35.44;;
69837;SDS011;57135;51.992;4.476;2023-03-01T07:45:45;36.00;;;35.15;;
69837;SDS011;57135;51.992;4.476;2023-03-01T07:48:11;35.82;;;34.88;;
69837;SDS011;57135;51.992;4.476;2023-03-01T07:50:37;35.86;;;34.83;;
69837;SDS011;57135;51.992;4.476;2023-03-01T07:53:02;34.72;;;33.88;;
69837;SDS011;57135;51.992;4.476;2023-03-01T07:55:27;35.18;;;34.44;;
69837;SDS011;57135;51.992;4.476;2023-03-01T07:57:53;34.93;;;34.31;;
69837;SDS011;57135;51.992;4.476;2023-03-01T08:00:19;35.58;;;34.71;;
69837;SDS011;57135;51.992;4.476;2023-03-01T08:02:44;33.27;;;32.70;;
69837;SDS011;57135;51.992;4.476;2023-03-01T08:05:10;32.79;;;32.28;;
69837;SDS011;57135;51.992;4.476;2023-03-01T08:07:36;32.81;;;32.07;;
69837;SDS011;57135;51.992;4.476;2023-03-01T08:10:01;32.79;;;32.06;;
69837;SDS011;57135;51.992;4.476;2023-03-01T08:12:27;32.38;;;31.59;;
69837;SDS011;57135;51.992;4.476;2023-03-01T08:14:53;31.14;;;30.53;;
69837;SDS011;57135;51.992;4.476;2023-03-01T08:17:19;31.04;;;30.43;;
69837;SDS011;57135;51.992;4.476;2023-03-01T08:19:44;31.57;;;30.87;;
69837;SDS011;57135;51.992;4.476;2023-03-01T08:22:10;31.12;;;30.34;;
69837;SDS011;57135;51.992;4.476;2023-03-01T08:24:35;29.94;;;29.27;;
69837;SDS011;57135;51.992;4.476;2023-03-01T08:27:01;30.16;;;29.66;;
69837;SDS011;57135;51.992;4.476;2023-03-01T08:29:28;29.78;;;28.96;;
69837;SDS011;57135;51.992;4.476;2023-03-01T08:31:55;28.79;;;28.35;;
69837;SDS011;57135;51.992;4.476;2023-03-01T08:34:21;29.35;;;28.66;;
69837;SDS011;57135;51.992;4.476;2023-03-01T08:36:47;29.29;;;28.48;;
69837;SDS011;57135;51.992;4.476;2023-03-01T08:39:13;28.49;;;27.92;;
69837;SDS011;57135;51.992;4.476;2023-03-01T08:42:01;27.74;;;27.40;;
69837;SDS011;57135;51.992;4.476;2023-03-01T08:44:27;29.04;;;28.40;;
69837;SDS011;57135;51.992;4.476;2023-03-01T08:46:52;29.76;;;28.88;;
69837;SDS011;57135;51.992;4.476;2023-03-01T08:49:19;28.52;;;27.85;;
69837;SDS011;57135;51.992;4.476;2023-03-01T08:51:45;28.73;;;27.95;;
69837;SDS011;57135;51.992;4.476;2023-03-01T08:56:40;25.12;;;24.62;;
69837;SDS011;57135;51.992;4.476;2023-03-01T08:59:06;24.61;;;24.06;;
69837;SDS011;57135;51.992;4.476;2023-03-01T09:01:32;23.57;;;23.15;;
69837;SDS011;57135;51.992;4.476;2023-03-01T09:03:57;23.77;;;23.22;;
69837;SDS011;57135;51.992;4.476;2023-03-01T09:06:23;21.67;;;21.50;;
69837;SDS011;57135;51.992;4.476;2023-03-01T09:08:49;21.51;;;21.08;;
69837;SDS011;57135;51.992;4.476;2023-03-01T09:11:19;21.21;;;20.68;;
69837;SDS011;57135;51.992;4.476;2023-03-01T09:13:48;20.24;;;19.80;;
69837;SDS011;57135;51.992;4.476;2023-03-01T09:16:14;20.78;;;20.41;;
69837;SDS011;57135;51.992;4.476;2023-03-01T09:18:42;19.61;;;19.38;;
69837;SDS011;57135;51.992;4.476;2023-03-01T09:23:39;18.28;;;18.17;;
69837;SDS011;57135;51.992;4.476;2023-03-01T09:26:07;19.11;;;19.04;;
69837;SDS011;57135;51.992;4.476;2023-03-01T09:28:34;19.53;;;19.17;;
69837;SDS011;57135;51.992;4.476;2023-03-01T09:31:00;20.23;;;19.77;;
69837;SDS011;57135;51.992;4.476;2023-03-01T09:33:28;19.24;;;18.90;;
69837;SDS011;57135;51.992;4.476;2023-03-01T09:35:59;17.77;;;17.41;;
69837;SDS011;57135;51.992;4.476;2023-03-01T09:38:28;17.49;;;17.42;;
69837;SDS011;57135;51.992;4.476;2023-03-01T09:40:54;16.95;;;16.67;;
69837;SDS011;57135;51.992;4.476;2023-03-01T09:45:48;16.35;;;16.26;;
69837;SDS011;57135;51.992;4.476;2023-03-01T09:48:18;17.94;;;17.70;;
69837;SDS011;57135;51.992;4.476;2023-03-01T09:50:48;18.16;;;17.83;;
69837;SDS011;57135;51.992;4.476;2023-03-01T09:53:28;17.74;;;17.50;;
69837;SDS011;57135;51.992;4.476;2023-03-01T10:01:41;16.00;;;15.71;;
69837;SDS011;57135;51.992;4.476;2023-03-01T10:09:34;14.50;;;14.32;;
69837;SDS011;57135;51.992;4.476;2023-03-01T10:12:04;14.25;;;14.06;;
69837;SDS011;57135;51.992;4.476;2023-03-01T10:14:39;13.64;;;13.64;;
69837;SDS011;57135;51.992;4.476;2023-03-01T10:17:35;12.73;;;12.67;;
69837;SDS011;57135;51.992;4.476;2023-03-01T10:20:24;12.15;;;12.02;;
69837;SDS011;57135;51.992;4.476;2023-03-01T10:22:52;11.71;;;11.45;;
69837;SDS011;57135;51.992;4.476;2023-03-01T10:27:52;11.26;;;11.18;;
69837;SDS011;57135;51.992;4.476;2023-03-01T10:32:51;10.73;;;10.70;;
69837;SDS011;57135;51.992;4.476;2023-03-01T10:38:09;10.60;;;10.57;;
69837;SDS011;57135;51.992;4.476;2023-03-01T10:43:47;10.48;;;10.41;;
69837;SDS011;57135;51.992;4.476;2023-03-01T10:51:51;10.41;;;10.38;;
69837;SDS011;57135;51.992;4.476;2023-03-01T10:54:27;10.57;;;10.50;;
69837;SDS011;57135;51.992;4.476;2023-03-01T10:56:59;11.07;;;10.97;;
69837;SDS011;57135;51.992;4.476;2023-03-01T10:59:30;11.77;;;11.74;;
69837;SDS011;57135;51.992;4.476;2023-03-01T11:04:55;12.89;;;12.79;;
69837;SDS011;57135;51.992;4.476;2023-03-01T11:07:27;14.80;;;14.57;;
69837;SDS011;57135;51.992;4.476;2023-03-01T11:09:53;15.53;;;15.33;;
69837;SDS011;57135;51.992;4.476;2023-03-01T11:12:20;15.44;;;15.23;;
69837;SDS011;57135;51.992;4.476;2023-03-01T11:14:47;14.53;;;14.45;;
69837;SDS011;57135;51.992;4.476;2023-03-01T11:17:25;14.26;;;14.11;;
69837;SDS011;57135;51.992;4.476;2023-03-01T11:20:13;14.41;;;14.21;;
69837;SDS011;57135;51.992;4.476;2023-03-01T11:22:52;14.54;;;14.33;;
69837;SDS011;57135;51.992;4.476;2023-03-01T11:25:21;15.55;;;15.25;;
69837;SDS011;57135;51.992;4.476;2023-03-01T11:27:51;16.14;;;15.77;;
69837;SDS011;57135;51.992;4.476;2023-03-01T11:35:34;16.48;;;16.14;;
69837;SDS011;57135;51.992;4.476;2023-03-01T11:38:12;16.64;;;16.32;;
69837;SDS011;57135;51.992;4.476;2023-03-01T11:48:50;16.37;;;15.96;;
69837;SDS011;57135;51.992;4.476;2023-03-01T12:08:20;15.81;;;15.56;;
69837;SDS011;57135;51.992;4.476;2023-03-01T12:11:03;17.74;;;17.55;;
69837;SDS011;57135;51.992;4.476;2023-03-01T12:21:45;18.62;;;18.26;;
69837;SDS011;57135;51.992;4.476;2023-03-01T12:24:26;19.60;;;19.12;;
69837;SDS011;57135;51.992;4.476;2023-03-01T12:27:17;19.66;;;19.31;;
69837;SDS011;57135;51.992;4.476;2023-03-01T12:30:06;20.05;;;19.65;;
69837;SDS011;57135;51.992;4.476;2023-03-01T12:32:47;20.86;;;20.32;;
69837;SDS011;57135;51.992;4.476;2023-03-01T12:35:26;21.09;;;20.69;;
69837;SDS011;57135;51.992;4.476;2023-03-01T12:38:13;20.43;;;19.99;;
69837;SDS011;57135;51.992;4.476;2023-03-01T12:46:29;18.89;;;18.51;;
69837;SDS011;57135;51.992;4.476;2023-03-01T12:51:34;18.50;;;18.09;;
69837;SDS011;57135;51.992;4.476;2023-03-01T12:54:11;17.78;;;17.51;;
69837;SDS011;57135;51.992;4.476;2023-03-01T12:56:41;17.61;;;17.32;;
69837;SDS011;57135;51.992;4.476;2023-03-01T13:01:42;16.47;;;16.17;;
69837;SDS011;57135;51.992;4.476;2023-03-01T13:07:16;16.31;;;15.92;;
69837;SDS011;57135;51.992;4.476;2023-03-01T13:36:06;13.66;;;13.38;;
69837;SDS011;57135;51.992;4.476;2023-03-01T13:41:11;10.78;;;10.68;;
69837;SDS011;57135;51.992;4.476;2023-03-01T13:43:42;9.98;;;9.89;;
69837;SDS011;57135;51.992;4.476;2023-03-01T13:48:48;10.83;;;10.67;;
69837;SDS011;57135;51.992;4.476;2023-03-01T13:51:20;10.86;;;10.85;;
69837;SDS011;57135;51.992;4.476;2023-03-01T13:53:50;11.30;;;11.18;;
69837;SDS011;57135;51.992;4.476;2023-03-01T13:56:19;11.73;;;11.59;;
69837;SDS011;57135;51.992;4.476;2023-03-01T13:58:53;11.69;;;11.60;;
69837;SDS011;57135;51.992;4.476;2023-03-01T14:01:29;11.81;;;11.64;;
69837;SDS011;57135;51.992;4.476;2023-03-01T14:03:58;12.14;;;11.96;;
69837;SDS011;57135;51.992;4.476;2023-03-01T14:06:33;12.49;;;12.31;;
69837;SDS011;57135;51.992;4.476;2023-03-01T14:09:05;11.64;;;11.49;;
69837;SDS011;57135;51.992;4.476;2023-03-01T14:11:58;10.91;;;10.86;;
69837;SDS011;57135;51.992;4.476;2023-03-01T14:20:09;12.67;;;12.45;;
69837;SDS011;57135;51.992;4.476;2023-03-01T14:22:42;11.45;;;11.34;;
69837;SDS011;57135;51.992;4.476;2023-03-01T14:27:55;11.19;;;11.03;;
69837;SDS011;57135;51.992;4.476;2023-03-01T14:30:30;10.90;;;10.80;;
69837;SDS011;57135;51.992;4.476;2023-03-01T14:33:05;10.94;;;10.91;;
69837;SDS011;57135;51.992;4.476;2023-03-01T14:35:41;11.59;;;11.37;;
69837;SDS011;57135;51.992;4.476;2023-03-01T14:38:19;11.62;;;11.57;;
69837;SDS011;57135;51.992;4.476;2023-03-01T14:41:00;11.32;;;11.16;;
69837;SDS011;57135;51.992;4.476;2023-03-01T14:43:35;11.75;;;11.59;;
69837;SDS011;57135;51.992;4.476;2023-03-01T14:46:03;11.20;;;11.08;;
69837;SDS011;57135;51.992;4.476;2023-03-01T14:48:28;11.21;;;11.20;;
69837;SDS011;57135;51.992;4.476;2023-03-01T14:50:56;11.76;;;11.70;;
69837;SDS011;57135;51.992;4.476;2023-03-01T14:53:26;11.12;;;11.06;;
69837;SDS011;57135;51.992;4.476;2023-03-01T14:55:55;11.26;;;11.20;;
69837;SDS011;57135;51.992;4.476;2023-03-01T14:58:24;10.90;;;10.81;;
69837;SDS011;57135;51.992;4.476;2023-03-01T15:00:57;10.37;;;10.35;;
69837;SDS011;57135;51.992;4.476;2023-03-01T15:05:52;11.20;;;11.00;;
69837;SDS011;57135;51.992;4.476;2023-03-01T15:08:20;11.45;;;11.30;;
69837;SDS011;57135;51.992;4.476;2023-03-01T15:13:49;10.27;;;10.21;;
69837;SDS011;57135;51.992;4.476;2023-03-01T15:16:31;9.66;;;9.58;;
69837;SDS011;57135;51.992;4.476;2023-03-01T15:18:59;9.54;;;9.51;;
69837;SDS011;57135;51.992;4.476;2023-03-01T15:21:31;10.09;;;9.96;;
69837;SDS011;57135;51.992;4.476;2023-03-01T15:26:38;9.76;;;9.63;;
69837;SDS011;57135;51.992;4.476;2023-03-01T15:29:15;9.79;;;9.69;;
69837;SDS011;57135;51.992;4.476;2023-03-01T15:31:43;10.45;;;10.28;;
69837;SDS011;57135;51.992;4.476;2023-03-01T15:34:23;9.69;;;9.60;;
69837;SDS011;57135;51.992;4.476;2023-03-01T15:36:59;10.11;;;10.00;;
69837;SDS011;57135;51.992;4.476;2023-03-01T15:45:07;13.13;;;12.93;;
69837;SDS011;57135;51.992;4.476;2023-03-01T15:47:33;14.25;;;14.07;;
69837;SDS011;57135;51.992;4.476;2023-03-01T15:50:01;14.75;;;14.53;;
69837;SDS011;57135;51.992;4.476;2023-03-01T15:52:34;14.79;;;14.64;;
69837;SDS011;57135;51.992;4.476;2023-03-01T15:55:05;14.27;;;14.18;;
69837;SDS011;57135;51.992;4.476;2023-03-01T15:57:39;15.26;;;15.14;;
69837;SDS011;57135;51.992;4.476;2023-03-01T16:00:05;16.01;;;15.69;;
69837;SDS011;57135;51.992;4.476;2023-03-01T16:02:36;13.37;;;13.19;;
69837;SDS011;57135;51.992;4.476;2023-03-01T16:05:03;11.03;;;10.89;;
69837;SDS011;57135;51.992;4.476;2023-03-01T16:07:29;10.96;;;10.93;;
69837;SDS011;57135;51.992;4.476;2023-03-01T16:09:56;11.40;;;11.34;;
69837;SDS011;57135;51.992;4.476;2023-03-01T16:12:22;11.53;;;11.31;;
69837;SDS011;57135;51.992;4.476;2023-03-01T16:14:49;11.41;;;11.28;;
69837;SDS011;57135;51.992;4.476;2023-03-01T16:17:15;11.77;;;11.63;;
69837;SDS011;57135;51.992;4.476;2023-03-01T16:19:41;11.82;;;11.71;;
69837;SDS011;57135;51.992;4.476;2023-03-01T16:22:08;12.02;;;11.95;;
69837;SDS011;57135;51.992;4.476;2023-03-01T16:24:35;12.09;;;12.00;;
69837;SDS011;57135;51.992;4.476;2023-03-01T16:27:01;13.25;;;13.08;;
69837;SDS011;57135;51.992;4.476;2023-03-01T16:29:27;12.18;;;12.09;;
69837;SDS011;57135;51.992;4.476;2023-03-01T16:31:54;11.36;;;11.24;;
69837;SDS011;57135;51.992;4.476;2023-03-01T16:34:19;11.88;;;11.68;;
69837;SDS011;57135;51.992;4.476;2023-03-01T16:36:46;11.49;;;11.42;;
69837;SDS011;57135;51.992;4.476;2023-03-01T16:39:12;11.61;;;11.51;;
69837;SDS011;57135;51.992;4.476;2023-03-01T16:41:37;12.63;;;12.37;;
69837;SDS011;57135;51.992;4.476;2023-03-01T16:44:03;11.65;;;11.53;;
69837;SDS011;57135;51.992;4.476;2023-03-01T16:46:29;11.54;;;11.45;;
69837;SDS011;57135;51.992;4.476;2023-03-01T16:48:55;11.62;;;11.48;;
69837;SDS011;57135;51.992;4.476;2023-03-01T16:51:21;11.93;;;11.82;;
69837;SDS011;57135;51.992;4.476;2023-03-01T16:53:48;12.78;;;12.66;;
69837;SDS011;57135;51.992;4.476;2023-03-01T16:56:14;12.02;;;11.89;;
69837;SDS011;57135;51.992;4.476;2023-03-01T16:58:40;12.05;;;12.01;;
69837;SDS011;57135;51.992;4.476;2023-03-01T17:01:10;12.97;;;12.84;;
69837;SDS011;57135;51.992;4.476;2023-03-01T17:03:38;13.90;;;13.87;;
69837;SDS011;57135;51.992;4.476;2023-03-01T17:06:06;13.56;;;13.40;;